Time;durP1;ratioP1;P1;durP2;ratioP2;P2;SDS_P1;SDS_P2;PMS_P1;PMS_P2;Temp;Humidity;BMP_temperature;BMP_pressure;BME280_temperature;BME280_humidity;BME280_pressure;Samples;Min_cycle;Max_cycle;Signal;HPM_P1;HPM_P2
2022/06/01 00:01:18;;;;;;;14.45;6.93;;;;;;;17.10;100.00;97030.25;5027170;28;20068;-67
2022/06/01 00:04:00;;;;;;;12.85;7.00;;;;;;;17.15;100.00;97021.41;5040090;28;20444;-66
2022/06/01 00:06:30;;;;;;;17.63;6.88;;;;;;;16.95;100.00;96967.19;5044499;28;20061;-66
2022/06/01 00:08:56;;;;;;;14.98;7.80;;;;;;;16.95;100.00;96972.78;5045614;28;20056;-66
2022/06/01 00:11:23;;;;;;;17.75;8.65;;;;;;;17.25;100.00;97012.09;5044749;28;20061;-66
2022/06/01 00:13:51;;;;;;;11.93;7.57;;;;;;;17.28;100.00;97008.47;5044331;28;20091;-67
2022/06/01 00:16:18;;;;;;;11.23;5.97;;;;;;;17.10;100.00;97007.84;5044917;28;20122;-65
2022/06/01 00:18:45;;;;;;;10.40;6.38;;;;;;;16.83;100.00;96964.91;5026311;28;20151;-67
2022/06/01 00:21:12;;;;;;;10.98;5.18;;;;;;;16.64;100.00;96944.69;5026447;28;20119;-65
2022/06/01 00:23:40;;;;;;;8.98;5.45;;;;;;;16.95;100.00;97007.19;5026112;28;20056;-67
2022/06/01 00:26:07;;;;;;;7.20;5.88;;;;;;;16.99;100.00;97004.34;5044214;28;20643;-67
2022/06/01 00:28:35;;;;;;;9.43;5.18;;;;;;;17.09;100.00;97003.44;5044314;28;20063;-65
2022/06/01 00:31:05;;;;;;;10.70;4.95;;;;;;;17.03;100.00;96996.72;5043964;28;20075;-65
2022/06/01 00:33:32;;;;;;;9.93;4.97;;;;;;;17.03;100.00;96996.72;5043883;28;20064;-67
2022/06/01 00:35:59;;;;;;;8.02;5.00;;;;;;;16.75;100.00;96964.19;5043742;28;20140;-66
2022/06/01 00:38:47;;;;;;;7.38;4.75;;;;;;;16.61;100.00;96941.94;5026177;28;20057;-66
2022/06/01 00:52:00;;;;;;;9.73;5.97;;;;;;;16.89;100.00;96985.66;5036030;28;20072;-66
2022/06/01 00:54:28;;;;;;;10.68;6.15;;;;;;;16.90;100.00;96981.66;5026069;28;20057;-65
2022/06/01 00:57:02;;;;;;;8.52;5.88;;;;;;;16.93;100.00;96978.03;5058882;28;20519;-67
2022/06/01 00:59:33;;;;;;;10.63;6.43;;;;;;;16.72;100.00;96933.44;5042316;28;20060;-67
2022/06/01 01:02:02;;;;;;;9.50;6.72;;;;;;;16.93;100.00;96952.84;5042994;28;20061;-67
2022/06/01 01:04:33;;;;;;;10.55;6.88;;;;;;;17.18;100.00;96976.56;5025860;28;20107;-67
2022/06/01 01:07:04;;;;;;;8.27;5.82;;;;;;;17.12;100.00;96978.22;5043447;28;20048;-67
2022/06/01 01:09:31;;;;;;;8.55;4.72;;;;;;;17.14;100.00;96975.00;5058752;28;20087;-67
2022/06/01 01:12:05;;;;;;;5.68;4.40;;;;;;;17.02;99.69;96975.53;5043799;28;20589;-65
2022/06/01 01:14:34;;;;;;;;;;;;;;;17.06;99.31;96971.50;5044245;28;20064;-65
2022/06/01 01:17:04;;;;;;;7.20;4.15;;;;;;;16.95;99.78;96962.41;5058424;28;19936;-67
2022/06/01 01:19:47;;;;;;;5.88;3.97;;;;;;;16.98;96.90;96966.38;5043640;28;20061;-65
2022/06/01 01:22:36;;;;;;;6.23;3.63;;;;;;;16.94;98.47;96957.22;5025586;28;20057;-67
2022/06/01 01:25:23;;;;;;;5.60;3.67;;;;;;;16.60;98.57;96935.53;5043442;28;20061;-67
2022/06/01 01:27:57;;;;;;;7.25;3.10;;;;;;;16.08;98.00;96882.78;5044137;28;20099;-65
2022/06/01 01:30:40;;;;;;;6.45;3.88;;;;;;;16.55;98.99;96955.53;5043529;28;20060;-67
2022/06/01 01:33:14;;;;;;;5.53;3.65;;;;;;;16.48;98.79;96957.63;5025577;28;20060;-67
2022/06/01 01:35:44;;;;;;;9.50;3.78;;;;;;;16.45;98.81;96955.63;5044193;28;20061;-65
2022/06/01 01:38:25;;;;;;;8.90;3.63;;;;;;;16.10;97.89;96900.75;5043416;28;20053;-65
2022/06/01 01:41:40;;;;;;;7.13;3.65;;;;;;;16.38;99.65;96959.25;5043368;28;20060;-67
2022/06/01 01:51:02;;;;;;;7.13;3.53;;;;;;;16.12;100.00;96954.22;5041095;28;20060;-67
2022/06/01 01:53:32;;;;;;;4.40;3.88;;;;;;;15.97;100.00;96933.16;5043344;28;20056;-65
2022/06/01 01:56:36;;;;;;;7.35;3.95;;;;;;;16.19;99.71;96959.78;5043334;28;20053;-67
2022/06/01 02:03:41;;;;;;;4.77;3.63;;;;;;;15.98;100.00;96962.69;4981307;28;20057;-65
2022/06/01 02:12:59;;;;;;;7.93;4.35;;;;;;;15.88;100.00;96960.75;4981415;28;20058;-67
2022/06/01 02:15:40;;;;;;;5.93;3.70;;;;;;;15.91;100.00;96962.72;4983580;28;20542;-67
2022/06/01 02:18:12;;;;;;;9.00;3.88;;;;;;;15.92;100.00;96967.09;5022913;28;20057;-66
2022/06/01 02:20:57;;;;;;;4.88;3.67;;;;;;;15.97;100.00;96969.47;5027282;28;20066;-65
2022/06/01 02:23:25;;;;;;;8.35;3.70;;;;;;;15.66;98.73;96931.34;5027054;28;20528;-66
2022/06/01 02:26:12;;;;;;;7.78;3.53;;;;;;;15.97;98.50;96974.25;5027518;28;20061;-66
2022/06/01 02:28:46;;;;;;;6.07;3.63;;;;;;;15.88;100.00;96977.53;5027253;28;20077;-67
2022/06/01 02:31:37;;;;;;;4.70;3.70;;;;;;;15.87;99.37;96970.31;5026891;28;20528;-67
2022/06/01 02:34:37;;;;;;;10.50;3.67;;;;;;;15.74;99.63;96966.41;5038798;28;20130;-66
2022/06/01 02:37:07;;;;;;;7.80;3.47;;;;;;;15.35;99.62;96909.88;5026901;28;20053;-66
2022/06/01 02:39:50;;;;;;;;;;;;;;;;;;;;;
2022/06/01 02:51:49;;;;;;;6.63;3.92;;;;;;;15.69;100.00;96972.41;5016505;28;20050;-66
2022/06/01 02:54:37;;;;;;;6.75;4.70;;;;;;;15.72;100.00;96971.59;5006862;28;20058;-65
2022/06/01 02:57:05;;;;;;;17.58;8.73;;;;;;;15.56;99.72;96948.91;5007008;28;20049;-67
2022/06/01 02:59:54;;;;;;;;;;;;;;;;;;;;;
2022/06/01 03:02:22;;;;;;;7.85;4.68;;;;;;;15.37;100.00;96935.41;5006236;28;20058;-66
2022/06/01 03:05:06;;;;;;;6.57;4.35;;;;;;;15.73;100.00;96981.56;5003343;28;20548;-66
2022/06/01 03:07:33;;;;;;;6.78;4.00;;;;;;;15.79;100.00;96977.13;4989429;28;20062;-67
2022/06/01 03:10:00;;;;;;;4.90;3.55;;;;;;;15.82;98.88;96978.34;5006466;28;20058;-68
2022/06/01 03:12:34;;;;;;;5.18;3.63;;;;;;;15.72;98.99;96973.59;5005946;28;20054;-66
2022/06/01 03:15:01;;;;;;;6.88;3.22;;;;;;;15.67;99.64;96972.00;5006050;28;20153;-66
2022/06/01 03:20:29;;;;;;;6.53;3.70;;;;;;;15.80;99.95;96975.16;5002895;28;20058;-67
2022/06/01 03:22:58;;;;;;;8.65;4.50;;;;;;;15.88;98.21;96971.13;5006020;28;20064;-67
2022/06/01 03:25:25;;;;;;;6.20;3.60;;;;;;;15.49;98.13;96915.44;5005998;28;20105;-65
2022/06/01 03:27:54;;;;;;;5.20;3.63;;;;;;;15.98;97.53;96982.22;5006764;28;20070;-66
2022/06/01 03:30:21;;;;;;;4.38;3.45;;;;;;;16.07;95.88;96984.59;4972780;28;20058;-67
2022/06/01 03:32:52;;;;;;;7.72;4.18;;;;;;;15.63;95.13;96943.31;5005692;28;20126;-66
2022/06/01 03:35:28;;;;;;;6.38;4.05;;;;;;;16.08;94.95;96998.16;4987841;28;20057;-67
2022/06/01 03:37:59;;;;;;;6.22;3.63;;;;;;;15.71;94.69;96933.69;5005370;28;20064;-66
2022/06/01 03:40:45;;;;;;;;;;;;;;;;;;;;;
2022/06/01 03:43:25;;;;;;;7.60;3.78;;;;;;;15.64;97.29;96894.63;5005754;28;20146;-65
2022/06/01 03:46:00;;;;;;;6.47;4.22;;;;;;;16.26;97.63;97010.06;5005858;28;20064;-66
2022/06/01 03:48:43;;;;;;;5.38;3.75;;;;;;;16.46;96.93;96997.16;5005610;28;20068;-65
2022/06/01 03:51:13;;;;;;;5.82;4.32;;;;;;;16.38;96.68;96995.59;5005058;28;20049;-65
2022/06/01 03:53:40;;;;;;;7.60;4.28;;;;;;;16.63;95.92;97005.84;5005852;28;20057;-66
2022/06/01 03:56:10;;;;;;;5.93;3.58;;;;;;;16.70;94.97;97000.19;5004983;28;20058;-66
2022/06/01 03:58:37;;;;;;;10.35;4.57;;;;;;;16.91;92.95;97012.03;4987782;28;20062;-66
2022/06/01 04:01:10;;;;;;;5.10;3.55;;;;;;;16.89;91.92;96986.44;5005254;28;20061;-67
2022/06/01 04:03:38;;;;;;;14.13;3.90;;;;;;;17.08;91.51;97010.25;5005446;28;20057;-67
2022/06/01 04:06:07;;;;;;;7.07;3.25;;;;;;;16.75;92.44;96929.81;5005084;28;20112;-65
2022/06/01 04:08:35;;;;;;;3.72;3.10;;;;;;;16.98;91.91;96967.16;5005064;28;20097;-67
2022/06/01 04:21:39;;;;;;;7.40;4.38;;;;;;;17.82;88.78;96999.09;5001190;28;20061;-65
2022/06/01 04:24:11;;;;;;;5.20;4.05;;;;;;;17.96;86.34;96996.94;5003597;28;20061;-67
2022/06/01 04:26:39;;;;;;;4.88;3.53;;;;;;;18.10;85.51;97005.16;5004910;28;20053;-67
2022/06/01 04:29:06;;;;;;;6.00;3.40;;;;;;;18.24;85.67;97003.38;5004940;28;20062;-66
2022/06/01 04:31:37;;;;;;;7.35;3.95;;;;;;;18.46;84.12;96997.09;5004662;28;20097;-66
2022/06/01 04:34:05;;;;;;;6.35;3.83;;;;;;;18.31;82.65;96953.59;4987098;28;20139;-67
2022/06/01 04:36:32;;;;;;;5.05;3.70;;;;;;;18.70;82.22;96987.47;5004491;28;20058;-67
2022/06/01 04:38:59;;;;;;;7.55;3.70;;;;;;;18.83;82.28;96996.91;5004967;28;20065;-67
2022/06/01 04:41:51;;;;;;;6.40;3.35;;;;;;;18.85;82.21;96996.47;5004560;28;20054;-65
2022/06/01 04:44:37;;;;;;;6.05;3.45;;;;;;;18.30;84.62;96934.38;4983463;28;20053;-65
2022/06/01 04:47:04;;;;;;;9.20;4.10;;;;;;;18.63;85.70;96982.00;5004291;28;20114;-65
2022/06/01 04:49:32;;;;;;;7.60;4.72;;;;;;;18.90;86.02;96991.19;5004576;28;20062;-66
2022/06/01 04:52:06;;;;;;;7.60;5.18;;;;;;;19.08;86.01;96997.28;5004628;28;20089;-65
2022/06/01 04:54:34;;;;;;;9.50;5.32;;;;;;;19.21;85.93;96998.28;5004457;28;20058;-67
2022/06/01 04:57:06;;;;;;;10.60;4.72;;;;;;;19.28;84.83;97003.78;4987084;28;20058;-66
2022/06/01 04:59:36;;;;;;;8.02;5.13;;;;;;;18.92;84.34;96955.03;4986723;28;20121;-64
2022/06/01 05:02:06;;;;;;;12.90;5.78;;;;;;;19.16;85.81;96998.75;5003697;28;20061;-65
2022/06/01 05:04:42;;;;;;;15.13;5.15;;;;;;;19.14;85.04;97006.81;5003896;28;20073;-67
2022/06/01 05:07:09;;;;;;;10.70;4.47;;;;;;;19.34;84.97;97002.09;5003851;28;20144;-66
2022/06/01 05:09:36;;;;;;;9.23;5.75;;;;;;;19.49;84.09;97003.41;4986676;28;20057;-67
2022/06/01 05:12:04;;;;;;;7.88;5.07;;;;;;;19.53;83.47;96995.72;5004925;28;20068;-65
2022/06/01 05:14:31;;;;;;;11.68;5.15;;;;;;;19.65;83.56;97004.75;5003880;28;20139;-66
2022/06/01 05:16:59;;;;;;;5.63;4.47;;;;;;;19.83;82.81;97002.34;5003639;28;20058;-67
2022/06/01 05:19:26;;;;;;;8.25;4.63;;;;;;;20.01;82.20;97008.44;5003866;28;20064;-65
2022/06/01 05:21:53;;;;;;;10.48;4.63;;;;;;;20.14;81.20;97006.59;4986176;28;20165;-65
2022/06/01 05:24:20;;;;;;;7.72;4.60;;;;;;;20.29;80.91;97011.47;5004099;28;20065;-66
2022/06/01 05:26:47;;;;;;;9.50;4.53;;;;;;;20.42;78.79;96995.47;5003730;28;20054;-67
2022/06/01 05:29:14;;;;;;;8.90;4.35;;;;;;;20.69;78.22;97015.00;4986770;28;20089;-65
2022/06/01 05:31:43;;;;;;;7.03;4.63;;;;;;;20.86;76.24;97014.59;5004149;28;20064;-66
2022/06/01 05:34:10;;;;;;;6.05;4.53;;;;;;;20.58;75.78;96963.78;5004007;28;20077;-67
2022/06/01 05:36:37;;;;;;;10.65;4.28;;;;;;;21.11;76.44;97011.19;5003780;28;20058;-66
2022/06/01 05:39:04;;;;;;;6.38;4.20;;;;;;;21.18;74.46;97005.38;5003658;28;20319;-67
2022/06/01 05:41:31;;;;;;;7.43;4.10;;;;;;;21.18;74.33;96988.47;5003858;28;20054;-67
2022/06/01 05:43:58;;;;;;;5.13;4.00;;;;;;;21.51;73.10;97015.41;4986523;28;20062;-65
2022/06/01 05:46:26;;;;;;;5.93;4.30;;;;;;;21.71;71.27;97023.72;5003682;28;20120;-65
2022/06/01 05:48:53;;;;;;;7.32;4.68;;;;;;;21.39;70.05;96956.09;4987870;28;20225;-65
2022/06/01 05:51:20;;;;;;;9.00;4.43;;;;;;;21.51;67.70;96994.88;5008085;28;20112;-66
2022/06/01 05:53:47;;;;;;;8.88;4.30;;;;;;;21.94;64.94;97015.84;5007217;28;20054;-68
2022/06/01 05:56:14;;;;;;;5.57;4.25;;;;;;;21.77;66.41;96957.91;4989918;28;20061;-66
2022/06/01 05:58:41;;;;;;;6.70;3.75;;;;;;;22.30;65.24;97024.84;5004989;28;20081;-67
2022/06/01 06:01:09;;;;;;;4.88;4.07;;;;;;;22.56;63.92;97008.03;5017498;28;20135;-65
2022/06/01 06:03:36;;;;;;;6.30;4.07;;;;;;;22.84;63.45;97015.59;5027536;28;20441;-66
2022/06/01 06:06:13;;;;;;;4.43;4.03;;;;;;;23.01;62.36;97020.69;5006249;28;20072;-73
2022/06/01 06:08:46;;;;;;;8.32;3.75;;;;;;;23.10;61.75;97017.16;5007188;28;20062;-68
2022/06/01 06:11:21;;;;;;;9.18;3.53;;;;;;;22.94;60.88;97020.09;5007377;28;20484;-65
2022/06/01 06:13:48;;;;;;;5.30;4.10;;;;;;;23.20;60.80;97024.53;5014715;28;20081;-63
2022/06/01 06:16:16;;;;;;;12.90;3.72;;;;;;;23.21;61.64;97011.97;5016685;28;20089;-64
2022/06/01 06:18:44;;;;;;;6.50;4.10;;;;;;;22.97;60.86;96971.19;5008174;28;20504;-64
2022/06/01 06:21:11;;;;;;;4.35;3.63;;;;;;;23.40;59.20;97022.25;5019456;28;20062;-75
2022/06/01 06:23:38;;;;;;;4.28;3.67;;;;;;;23.59;58.16;97021.19;5005473;28;20058;-64
2022/06/01 06:26:06;;;;;;;8.40;4.32;;;;;;;23.84;58.14;96992.81;5007410;28;20061;-67
2022/06/01 06:28:33;;;;;;;6.85;4.65;;;;;;;24.20;58.03;97007.28;5020217;28;20607;-67
2022/06/01 06:31:00;;;;;;;9.55;4.22;;;;;;;24.24;58.28;97010.78;4999113;28;20141;-66
2022/06/01 06:33:28;;;;;;;6.97;4.22;;;;;;;24.42;56.67;97010.88;5006001;28;20057;-71
2022/06/01 06:35:57;;;;;;;8.82;4.72;;;;;;;24.53;56.16;96999.94;5012427;28;20487;-72
2022/06/01 06:38:29;;;;;;;7.90;3.70;;;;;;;24.57;55.60;96999.81;5015781;28;20069;-70
2022/06/01 06:40:58;;;;;;;4.45;3.88;;;;;;;24.57;54.93;97011.94;4998639;28;20065;-70
2022/06/01 06:43:27;;;;;;;6.38;3.85;;;;;;;24.74;53.54;97015.34;5018560;28;20157;-66
2022/06/01 06:46:00;;;;;;;5.72;4.47;;;;;;;24.89;53.67;97008.69;5000235;28;20061;-73
2022/06/01 06:48:27;;;;;;;4.90;4.28;;;;;;;25.05;53.75;97014.06;5010126;28;20080;-74
2022/06/01 06:50:54;;;;;;;8.05;5.10;;;;;;;25.26;53.72;96999.03;5004722;28;20057;-68
2022/06/01 06:53:21;;;;;;;4.80;3.72;;;;;;;25.37;54.46;97001.44;5013421;28;20160;-71
2022/06/01 06:55:49;;;;;;;4.30;3.90;;;;;;;25.28;52.91;97005.03;5000642;28;20103;-65
2022/06/01 06:58:17;;;;;;;5.20;4.70;;;;;;;25.49;53.37;96991.22;5016358;28;20084;-66
2022/06/01 07:00:44;;;;;;;7.57;4.30;;;;;;;25.68;52.23;96999.31;5025210;28;20061;-66
2022/06/01 07:03:10;;;;;;;5.40;3.70;;;;;;;25.90;52.25;96994.28;5023632;28;20057;-66
2022/06/01 07:08:24;;;;;;;4.13;3.72;;;;;;;26.20;51.35;96993.34;5013879;28;20053;-70
2022/06/01 07:10:52;;;;;;;4.57;3.42;;;;;;;25.91;51.07;96932.63;5015661;28;20050;-71
2022/06/01 07:13:19;;;;;;;6.03;3.70;;;;;;;26.41;51.33;97000.13;5012519;28;20065;-68
2022/06/01 07:15:46;;;;;;;4.65;3.92;;;;;;;26.39;50.79;96946.63;5012833;28;20053;-74
2022/06/01 07:18:16;;;;;;;7.60;4.15;;;;;;;26.88;50.16;96994.66;5023236;28;20152;-67
2022/06/01 07:20:43;;;;;;;5.10;4.53;;;;;;;26.95;48.84;96988.63;5014384;28;20049;-67
2022/06/01 07:23:10;;;;;;;4.50;4.03;;;;;;;26.65;48.90;96941.38;5006747;28;20061;-64
2022/06/01 07:25:36;;;;;;;9.52;4.05;;;;;;;25.79;50.45;96893.81;4996233;28;20060;-61
2022/06/01 07:28:03;;;;;;;4.68;4.00;;;;;;;26.32;50.70;96985.94;5025590;28;20064;-63
2022/06/01 07:30:30;;;;;;;5.82;3.55;;;;;;;26.61;51.61;96986.97;5025387;28;20049;-61
2022/06/01 07:32:57;;;;;;;5.47;3.90;;;;;;;26.76;51.42;96981.44;5025524;28;20436;-65
2022/06/01 07:35:23;;;;;;;4.00;3.42;;;;;;;26.97;50.47;96973.94;5007867;28;20053;-66
2022/06/01 07:43:23;;;;;;;5.55;4.35;;;;;;;27.00;47.76;96962.34;5025069;28;20477;-59
2022/06/01 07:45:50;;;;;;;3.95;3.50;;;;;;;26.64;48.22;96899.97;5024025;28;20064;-62
2022/06/01 07:48:17;;;;;;;5.03;3.83;;;;;;;27.10;49.09;96966.75;5017114;28;20057;-61
2022/06/01 07:51:04;;;;;;;3.78;3.47;;;;;;;27.44;47.18;96963.41;5011864;28;20116;-66
2022/06/01 07:53:31;;;;;;;4.50;4.03;;;;;;;27.69;46.62;96956.44;5006597;28;20065;-63
2022/06/01 07:55:58;;;;;;;21.00;14.80;;;;;;;27.94;46.57;96961.66;4995991;28;20103;-62
2022/06/01 07:58:25;;;;;;;5.55;4.30;;;;;;;27.87;45.82;96942.84;4984035;28;20504;-60
2022/06/01 08:00:52;;;;;;;10.02;5.53;;;;;;;28.20;44.08;96947.66;5002757;28;20065;-60
2022/06/01 08:03:20;;;;;;;6.60;5.22;;;;;;;28.21;43.81;96930.06;5005552;28;20046;-62
2022/06/01 08:05:46;;;;;;;4.22;3.78;;;;;;;28.47;43.15;96950.25;5010597;28;20054;-61
2022/06/01 08:08:13;;;;;;;5.05;3.40;;;;;;;28.41;42.79;96943.63;5001783;28;20141;-59
2022/06/01 08:10:41;;;;;;;3.65;3.35;;;;;;;28.43;42.05;96929.69;5005631;28;20509;-66
2022/06/01 08:13:14;;;;;;;5.50;3.15;;;;;;;28.64;40.43;96951.34;5004668;28;20425;-62
2022/06/01 08:15:44;;;;;;;6.35;3.17;;;;;;;28.77;41.65;96960.38;4998153;28;20065;-62
2022/06/01 08:18:14;;;;;;;3.40;3.03;;;;;;;28.96;41.00;96967.44;4998198;28;20065;-61
2022/06/01 08:20:43;;;;;;;11.45;8.50;;;;;;;28.99;41.67;96955.81;4995543;28;20084;-63
2022/06/01 08:23:18;;;;;;;4.53;3.88;;;;;;;29.02;40.57;96932.00;5010454;28;20184;-65
2022/06/01 08:25:45;;;;;;;4.00;3.50;;;;;;;28.46;40.36;96854.59;5014087;28;20534;-63
2022/06/01 08:28:12;;;;;;;4.78;3.67;;;;;;;28.97;40.17;96931.91;5014586;28;20085;-62
2022/06/01 08:30:40;;;;;;;4.03;3.38;;;;;;;29.31;40.24;96954.00;5011801;28;20105;-61
2022/06/01 08:33:08;;;;;;;6.72;3.88;;;;;;;29.30;40.36;96958.94;5003831;28;20057;-63
2022/06/01 08:35:38;;;;;;;5.85;4.10;;;;;;;29.16;41.06;96948.34;5004095;28;20068;-63
2022/06/01 08:38:06;;;;;;;7.22;3.40;;;;;;;28.98;39.02;96947.75;5005657;28;20539;-63
2022/06/01 08:40:49;;;;;;;4.78;3.78;;;;;;;28.39;39.95;96923.41;5005743;28;20049;-61
2022/06/01 08:43:18;;;;;;;4.45;4.05;;;;;;;28.90;41.07;96949.44;5023478;28;20054;-61
2022/06/01 08:45:50;;;;;;;5.22;4.10;;;;;;;29.10;40.71;96946.69;5019595;28;20475;-60
2022/06/01 08:48:28;;;;;;;6.35;4.65;;;;;;;29.21;38.40;96946.84;5023520;28;20076;-65
2022/06/01 08:50:56;;;;;;;4.30;3.85;;;;;;;28.59;38.31;96853.03;4995810;28;20053;-65
2022/06/01 08:53:23;;;;;;;4.13;3.28;;;;;;;28.86;39.15;96951.72;5005377;28;20156;-63
2022/06/01 08:56:11;;;;;;;3.92;3.00;;;;;;;28.50;38.85;96920.78;5007020;28;20054;-59
2022/06/01 08:58:59;;;;;;;4.88;3.55;;;;;;;29.17;39.63;96937.69;4986944;28;20054;-60
2022/06/01 09:01:37;;;;;;;5.25;3.53;;;;;;;29.04;39.16;96895.19;5003117;28;20054;-60
2022/06/01 09:04:12;;;;;;;4.35;3.95;;;;;;;29.56;39.12;96953.31;4998110;28;20062;-61
2022/06/01 09:06:48;;;;;;;3.90;3.60;;;;;;;29.26;38.19;96946.16;5009348;28;20138;-60
2022/06/01 09:09:29;;;;;;;4.30;3.90;;;;;;;29.21;39.58;96955.41;5008095;28;20069;-63
2022/06/01 09:11:57;;;;;;;5.00;4.22;;;;;;;29.30;38.13;96958.13;5004676;28;20405;-60
2022/06/01 09:14:32;;;;;;;4.15;3.55;;;;;;;28.92;39.05;96936.25;4991362;28;20163;-64
2022/06/01 09:16:59;;;;;;;5.75;4.07;;;;;;;28.87;39.37;96934.09;4984193;28;20050;-61
2022/06/01 09:22:37;;;;;;;5.63;4.15;;;;;;;29.54;39.61;96944.47;5003990;28;20053;-63
2022/06/01 09:25:16;;;;;;;3.88;3.38;;;;;;;30.38;39.05;96955.66;4996183;28;20068;-60
2022/06/01 09:27:48;;;;;;;4.30;3.95;;;;;;;30.46;38.10;96933.91;5002845;28;20060;-61
2022/06/01 09:30:34;;;;;;;4.43;3.65;;;;;;;30.97;37.80;96938.81;5006028;28;20080;-64
2022/06/01 09:33:11;;;;;;;5.35;4.22;;;;;;;31.34;36.26;96946.13;5001502;28;20106;-61
2022/06/01 09:35:42;;;;;;;4.40;3.63;;;;;;;31.33;36.77;96915.16;4990270;28;20116;-60
2022/06/01 09:38:19;;;;;;;4.97;4.00;;;;;;;31.34;36.61;96902.38;4997656;28;20074;-62
2022/06/01 09:41:00;;;;;;;8.40;4.13;;;;;;;31.48;37.08;96936.56;5002379;28;20065;-60
2022/06/01 09:43:27;;;;;;;4.22;3.88;;;;;;;31.15;37.18;96875.44;4997933;28;20078;-60
2022/06/01 09:45:54;;;;;;;6.43;3.83;;;;;;;32.01;35.21;96930.09;5005645;28;20064;-62
2022/06/01 09:48:28;;;;;;;5.00;4.15;;;;;;;32.16;34.71;96947.84;5001853;28;20064;-62
2022/06/01 09:51:17;;;;;;;6.18;4.07;;;;;;;32.44;35.84;96928.63;4994302;28;20060;-60
2022/06/01 09:54:12;;;;;;;3.85;3.55;;;;;;;32.84;35.33;96918.75;4984552;28;20092;-61
2022/06/01 09:56:47;;;;;;;3.92;3.63;;;;;;;32.70;34.88;96911.19;4970491;28;20121;-60
2022/06/01 10:08:08;;;;;;;4.70;4.30;;;;;;;29.65;40.38;96927.50;4999645;28;20080;-62
2022/06/01 10:10:36;;;;;;;7.68;4.18;;;;;;;28.79;41.18;96866.53;5017333;28;20179;-61
2022/06/01 10:13:04;;;;;;;8.95;4.68;;;;;;;29.20;42.10;96931.00;5008526;28;20050;-61
2022/06/01 10:15:46;;;;;;;4.65;4.13;;;;;;;28.61;45.14;96935.22;5001895;28;20069;-64
2022/06/01 10:18:13;;;;;;;7.10;4.43;;;;;;;28.69;44.76;96937.16;4988725;28;20062;-60
2022/06/01 10:20:45;;;;;;;5.32;4.38;;;;;;;26.83;45.42;96634.25;4992357;28;20069;-66
2022/06/01 10:23:22;;;;;;;8.52;4.75;;;;;;;28.66;45.26;96943.09;5003763;28;20065;-64
2022/06/01 10:25:57;;;;;;;7.82;4.95;;;;;;;28.63;46.38;96944.06;5003680;28;20053;-60
2022/06/01 10:28:50;;;;;;;4.70;4.22;;;;;;;27.65;47.22;96882.63;4997426;28;20049;-64
2022/06/01 10:31:31;;;;;;;10.18;4.60;;;;;;;28.25;47.90;96935.59;5001472;28;20066;-63
2022/06/01 10:34:09;;;;;;;6.07;4.63;;;;;;;28.33;48.03;96948.16;5001966;28;20144;-65
2022/06/01 10:37:10;;;;;;;11.25;5.50;;;;;;;27.67;49.01;96914.25;5004604;28;20313;-65
2022/06/01 10:39:56;;;;;;;7.95;4.28;;;;;;;27.86;47.78;96952.69;5005214;28;20050;-61
2022/06/01 10:45:34;;;;;;;7.80;3.88;;;;;;;26.67;46.87;96802.38;5005006;28;20061;-62
2022/06/01 10:48:12;;;;;;;6.45;4.15;;;;;;;27.62;47.26;96951.91;5005661;28;20147;-66
2022/06/01 10:50:51;;;;;;;4.13;3.72;;;;;;;27.55;45.75;96971.41;5005117;28;20057;-65
2022/06/01 10:53:53;;;;;;;3.30;3.00;;;;;;;27.59;46.27;96952.88;5005288;28;20590;-65
2022/06/01 10:56:22;;;;;;;3.58;3.28;;;;;;;27.86;45.45;96952.69;5004674;28;20057;-60
2022/06/01 10:58:51;;;;;;;6.95;3.95;;;;;;;27.94;45.44;96950.25;4996923;28;20886;-66
2022/06/01 11:01:35;;;;;;;4.43;3.20;;;;;;;27.90;43.79;96879.25;5005169;28;20058;-61
2022/06/01 11:04:39;;;;;;;7.50;4.05;;;;;;;28.62;43.14;96948.97;4987160;28;20092;-64
2022/06/01 11:07:09;;;;;;;5.10;3.08;;;;;;;28.51;43.39;96953.69;5005110;28;20057;-66
2022/06/01 11:09:45;;;;;;;4.45;2.90;;;;;;;28.74;42.99;96949.97;5005002;28;20053;-65
2022/06/01 11:12:49;;;;;;;3.90;2.80;;;;;;;28.78;42.73;96939.13;5005089;28;20060;-64
2022/06/01 11:15:25;;;;;;;3.10;2.75;;;;;;;28.79;42.24;96935.00;4987659;28;20128;-63
2022/06/01 11:18:12;;;;;;;3.78;2.92;;;;;;;28.31;41.13;96825.34;4987457;28;20050;-65
2022/06/01 11:21:04;;;;;;;5.32;3.35;;;;;;;28.89;40.91;96933.59;4987373;28;20072;-61
2022/06/01 11:23:40;;;;;;;4.07;2.92;;;;;;;29.28;40.23;96926.44;4987529;28;20057;-58
2022/06/01 11:26:32;;;;;;;7.45;2.97;;;;;;;29.70;39.87;96912.53;5004837;28;20064;-62
2022/06/01 11:29:23;;;;;;;4.28;2.85;;;;;;;29.86;41.00;96926.19;4997429;28;20084;-65
2022/06/01 11:32:02;;;;;;;6.18;3.10;;;;;;;29.24;42.63;96874.50;5011974;28;20053;-62
2022/06/01 11:34:40;;;;;;;3.85;3.13;;;;;;;30.18;42.67;96925.00;5005029;28;20066;-60
2022/06/01 11:37:39;;;;;;;3.97;3.17;;;;;;;30.47;40.95;96929.75;5009657;28;20061;-66
2022/06/01 11:40:12;;;;;;;3.38;3.03;;;;;;;30.65;38.68;96932.28;5008679;28;20433;-66
2022/06/01 11:42:57;;;;;;;4.35;2.75;;;;;;;30.37;38.64;96909.13;5007890;28;20058;-65
2022/06/01 11:45:34;;;;;;;4.10;3.35;;;;;;;30.79;38.68;96946.44;4987253;28;20817;-65
2022/06/01 11:48:09;;;;;;;3.65;3.08;;;;;;;30.47;38.18;96953.41;4997378;28;20232;-64
2022/06/01 11:50:48;;;;;;;2.95;2.75;;;;;;;30.56;38.21;96943.88;5004200;28;20065;-64
2022/06/01 11:53:55;;;;;;;3.75;3.22;;;;;;;30.96;38.21;96926.56;5001876;28;20477;-60
2022/06/01 11:56:30;;;;;;;5.85;3.92;;;;;;;30.98;40.44;96944.78;4991027;28;20128;-64
2022/06/01 11:59:02;;;;;;;11.85;4.32;;;;;;;30.89;43.14;96950.72;4987792;28;20054;-62
2022/06/01 12:01:33;;;;;;;5.25;4.10;;;;;;;30.32;43.27;96861.25;5007732;28;20590;-64
2022/06/01 12:04:22;;;;;;;4.85;3.90;;;;;;;30.84;43.49;96937.13;5021418;28;20061;-63
2022/06/01 12:07:00;;;;;;;5.30;3.65;;;;;;;30.88;42.38;96917.69;5011402;28;20096;-61
2022/06/01 12:09:49;;;;;;;7.00;3.60;;;;;;;31.17;41.62;96924.38;5008768;28;20066;-64
2022/06/01 12:12:34;;;;;;;7.60;3.97;;;;;;;30.82;42.41;96928.28;4999243;28;20057;-65
2022/06/01 12:15:12;;;;;;;3.95;3.65;;;;;;;30.87;42.51;96913.22;4977872;28;20066;-64
2022/06/01 12:17:57;;;;;;;4.20;3.72;;;;;;;31.12;42.79;96916.53;5003644;28;20045;-60
2022/06/01 12:20:33;;;;;;;4.07;3.65;;;;;;;31.18;40.16;96908.75;4992562;28;20061;-60
2022/06/01 12:29:02;;;;;;;7.82;4.00;;;;;;;33.14;38.27;96894.75;5005234;28;20080;-66
2022/06/01 12:31:33;;;;;;;4.07;3.70;;;;;;;34.60;36.50;96891.56;5014613;28;20057;-61
2022/06/01 12:34:03;;;;;;;4.60;3.97;;;;;;;35.57;33.70;96889.66;5012069;28;20119;-61
2022/06/01 12:36:52;;;;;;;4.93;3.90;;;;;;;35.45;32.30;96814.06;5007374;28;20053;-63
2022/06/01 12:39:27;;;;;;;4.18;3.88;;;;;;;35.68;32.51;96881.63;5016171;28;20054;-60
2022/06/01 12:42:02;;;;;;;8.27;4.80;;;;;;;35.81;33.30;96864.44;5011569;28;20053;-62
2022/06/01 12:44:32;;;;;;;5.60;4.55;;;;;;;35.06;34.15;96888.59;5023535;28;20522;-62
2022/06/01 12:46:59;;;;;;;4.60;4.20;;;;;;;34.35;35.10;96881.25;5020345;28;20061;-60
2022/06/01 12:49:37;;;;;;;5.25;4.47;;;;;;;34.10;35.49;96882.47;4996616;28;20057;-60
2022/06/01 12:52:08;;;;;;;13.50;7.90;;;;;;;34.60;34.26;96903.06;5015218;28;20050;-61
2022/06/01 12:54:41;;;;;;;7.07;6.15;;;;;;;34.76;35.18;96887.78;4991270;28;20057;-62
2022/06/01 12:57:09;;;;;;;;;;;;;;;33.15;38.19;96899.19;5009781;28;20432;-61
2022/06/01 12:59:40;;;;;;;7.80;6.22;;;;;;;32.60;37.90;96823.81;5012503;28;19932;-61
2022/06/01 13:02:11;;;;;;;4.85;4.03;;;;;;;32.89;38.25;96889.31;5011940;28;20061;-61
2022/06/01 13:04:39;;;;;;;5.78;4.50;;;;;;;31.92;39.83;96898.75;5010572;28;20068;-60
2022/06/01 13:07:07;;;;;;;6.43;4.70;;;;;;;31.08;40.76;96879.53;5002322;28;20070;-63
2022/06/01 13:09:35;;;;;;;5.70;3.80;;;;;;;31.18;40.74;96891.56;4996550;28;20050;-61
2022/06/01 13:12:14;;;;;;;4.93;4.15;;;;;;;30.81;41.75;96897.31;4987695;28;20061;-61
2022/06/01 13:14:41;;;;;;;7.88;4.68;;;;;;;31.28;41.07;96895.81;4994583;28;20054;-59
2022/06/01 13:17:17;;;;;;;10.90;5.15;;;;;;;30.25;41.83;96853.16;5001643;28;20570;-65
2022/06/01 13:19:59;;;;;;;5.82;4.88;;;;;;;29.88;42.04;96766.50;5003034;28;20057;-61
2022/06/01 13:22:36;;;;;;;6.68;3.70;;;;;;;30.89;41.15;96886.97;5000381;28;20513;-58
2022/06/01 13:25:08;;;;;;;5.60;3.85;;;;;;;30.64;41.37;96859.97;4997827;28;20093;-66
2022/06/01 13:27:37;;;;;;;4.38;3.97;;;;;;;30.73;41.61;96890.47;5002848;28;20057;-60